Time;durP1;ratioP1;P1;durP2;ratioP2;P2;SDS_P1;SDS_P2;PMS_P1;PMS_P2;Temp;Humidity;BMP_temperature;BMP_pressure;BME280_temperature;BME280_humidity;BME280_pressure;Samples;Min_cycle;Max_cycle;Signal;HPM_P1;HPM_P2
2022/06/06 00:01:00;;;;;;;10.10;5.85;;;;;;;30.02;70.32;100726.88;5059914;28;66729;-38
2022/06/06 00:03:30;;;;;;;6.85;6.10;;;;;;;30.09;71.17;100726.81;5056704;28;68928;-38
2022/06/06 00:06:01;;;;;;;9.88;6.47;;;;;;;30.07;72.02;100729.75;5060812;28;66399;-39
2022/06/06 00:08:31;;;;;;;11.23;6.00;;;;;;;30.08;69.96;100719.75;5056298;28;70572;-40
2022/06/06 00:11:04;;;;;;;6.75;6.05;;;;;;;30.16;67.65;100717.59;5040856;28;68028;-41
2022/06/06 00:13:39;;;;;;;6.28;5.70;;;;;;;30.30;66.78;100728.38;5055777;28;70150;-41
2022/06/06 00:16:11;;;;;;;6.53;5.82;;;;;;;30.38;66.80;100719.97;5052220;28;66973;-39
2022/06/06 00:18:44;;;;;;;5.78;5.20;;;;;;;30.06;67.57;100668.56;5034649;28;69886;-40
2022/06/06 00:21:15;;;;;;;6.68;6.18;;;;;;;30.49;68.92;100709.25;5039791;28;65530;-39
2022/06/06 00:23:46;;;;;;;6.30;5.80;;;;;;;30.58;66.46;100717.91;5044929;28;69360;-39
2022/06/06 00:26:18;;;;;;;6.03;5.53;;;;;;;30.61;66.31;100703.94;5049590;28;66677;-39
2022/06/06 00:28:49;;;;;;;5.80;5.30;;;;;;;30.68;66.02;100715.53;5058100;28;69960;-38
2022/06/06 00:37:06;;;;;;;6.65;5.70;;;;;;;30.86;66.53;100719.34;5060157;28;66254;-38
2022/06/06 00:39:37;;;;;;;6.07;5.28;;;;;;;30.89;66.29;100727.03;5050625;28;70080;-37
2022/06/06 00:42:16;;;;;;;7.03;5.60;;;;;;;30.93;66.38;100722.84;5049712;28;65405;-37
2022/06/06 00:44:47;;;;;;;5.72;5.22;;;;;;;30.96;66.17;100727.78;5044452;28;69520;-37
2022/06/06 00:47:21;;;;;;;6.70;5.37;;;;;;;30.99;65.90;100730.06;5053143;28;66373;-38
2022/06/06 00:50:06;;;;;;;9.20;5.60;;;;;;;30.99;66.84;100732.75;5057069;28;69472;-37
2022/06/06 00:52:40;;;;;;;6.65;5.25;;;;;;;30.68;66.00;100666.81;5050792;28;65457;-38
2022/06/06 00:55:17;;;;;;;6.13;5.00;;;;;;;31.09;65.53;100733.06;5055184;28;69936;-37
2022/06/06 00:57:59;;;;;;;6.25;5.65;;;;;;;31.08;66.20;100731.41;5054182;28;66755;-38
2022/06/06 01:00:30;;;;;;;;;;;;;;;30.76;68.38;100722.56;5056731;28;70018;-38
2022/06/06 01:03:04;;;;;;;6.88;5.60;;;;;;;30.70;65.30;100670.13;5058900;28;65563;-37
2022/06/06 01:05:36;;;;;;;8.57;5.90;;;;;;;30.85;65.42;100666.25;5059074;28;70246;-38
2022/06/06 01:08:07;;;;;;;6.60;5.30;;;;;;;31.19;65.32;100716.28;5050791;28;65395;-37
2022/06/06 01:10:39;;;;;;;8.60;5.55;;;;;;;31.13;65.19;100711.78;5049584;28;70409;-38
2022/06/06 01:13:11;;;;;;;10.02;5.53;;;;;;;31.27;64.95;100724.09;5053010;28;65971;-37
2022/06/06 01:16:05;;;;;;;6.00;5.50;;;;;;;30.84;65.34;100661.88;5051314;28;69221;-38
2022/06/06 01:19:14;;;;;;;8.52;5.40;;;;;;;31.22;65.60;100725.84;5046114;28;66152;-38
2022/06/06 01:22:03;;;;;;;8.48;5.55;;;;;;;31.32;64.79;100726.97;5048776;28;70472;-37
2022/06/06 01:25:00;;;;;;;6.40;5.03;;;;;;;31.34;65.28;100735.72;5048167;28;66717;-38
2022/06/06 01:28:04;;;;;;;5.30;4.85;;;;;;;31.32;65.44;100721.53;5044121;28;69953;-38
2022/06/06 01:30:42;;;;;;;5.22;4.60;;;;;;;31.42;64.80;100736.47;5055480;28;66657;-38
2022/06/06 01:33:14;;;;;;;5.68;5.18;;;;;;;31.44;64.23;100729.78;5042426;28;69643;-38
2022/06/06 01:35:47;;;;;;;6.47;5.85;;;;;;;31.20;64.50;100681.88;5046565;28;66268;-38
2022/06/06 01:38:23;;;;;;;7.07;6.38;;;;;;;31.53;64.56;100736.53;5041082;28;69737;-38
2022/06/06 01:41:12;;;;;;;9.70;5.70;;;;;;;31.14;65.03;100670.88;5047596;28;66547;-38
2022/06/06 01:44:09;;;;;;;7.18;6.18;;;;;;;31.39;65.13;100719.59;5049392;28;69436;-38
2022/06/06 01:46:40;;;;;;;6.13;5.63;;;;;;;31.57;64.44;100735.03;5045457;28;66055;-37
2022/06/06 01:49:14;;;;;;;5.80;5.15;;;;;;;31.60;64.18;100740.00;5041778;28;71542;-36
2022/06/06 01:51:58;;;;;;;8.55;5.57;;;;;;;31.38;64.69;100709.00;5048206;28;66488;-37
2022/06/06 01:54:30;;;;;;;6.60;5.85;;;;;;;31.57;63.86;100729.59;5049931;28;71138;-37
2022/06/06 01:57:03;;;;;;;5.78;5.38;;;;;;;31.42;64.19;100701.22;5055686;28;66618;-36
2022/06/06 01:59:36;;;;;;;7.82;5.35;;;;;;;31.74;64.13;100756.09;5038462;28;70327;-36
2022/06/06 02:02:07;;;;;;;5.60;5.20;;;;;;;31.70;63.58;100744.03;5045873;28;66152;-37
2022/06/06 02:04:38;;;;;;;6.30;5.05;;;;;;;31.77;63.62;100761.06;5046040;28;69882;-37
2022/06/06 02:07:08;;;;;;;5.55;5.15;;;;;;;31.81;63.27;100754.09;5044266;28;66341;-38
2022/06/06 02:09:39;;;;;;;5.18;4.78;;;;;;;31.84;63.35;100759.06;5041039;28;69482;-38
2022/06/06 02:12:10;;;;;;;5.68;5.05;;;;;;;31.87;63.34;100760.50;5062897;28;65673;-38
2022/06/06 02:14:41;;;;;;;5.35;4.80;;;;;;;31.86;63.12;100765.09;5053996;28;69716;-38
2022/06/06 02:17:12;;;;;;;5.22;4.65;;;;;;;31.86;63.14;100748.81;5056684;28;66874;-37
2022/06/06 02:19:43;;;;;;;6.45;4.55;;;;;;;31.92;63.28;100752.53;5049983;28;69591;-37
2022/06/06 02:22:14;;;;;;;5.63;4.80;;;;;;;31.95;62.97;100747.47;5041980;28;66173;-39
2022/06/06 02:24:44;;;;;;;6.03;4.85;;;;;;;31.90;62.69;100732.91;5042672;28;70274;-38
2022/06/06 02:27:15;;;;;;;7.65;4.80;;;;;;;32.01;62.50;100743.84;5055338;28;65393;-38
2022/06/06 02:29:46;;;;;;;5.72;5.22;;;;;;;32.02;62.88;100742.78;5051344;28;70458;-38
2022/06/06 02:32:17;;;;;;;5.18;4.78;;;;;;;32.02;62.46;100740.06;5043714;28;66174;-38
2022/06/06 02:34:48;;;;;;;4.88;4.47;;;;;;;32.09;61.96;100737.22;5055906;28;70234;-38
2022/06/06 02:37:19;;;;;;;5.57;4.67;;;;;;;32.10;62.49;100738.09;5050175;28;66707;-37
2022/06/06 02:39:50;;;;;;;5.30;4.80;;;;;;;32.04;61.97;100718.13;5043595;28;69795;-37
2022/06/06 02:42:21;;;;;;;4.85;4.40;;;;;;;32.17;61.90;100733.38;5058659;28;66720;-37
2022/06/06 02:44:52;;;;;;;4.43;4.13;;;;;;;32.18;61.79;100737.72;5051190;28;70485;-37
2022/06/06 02:47:22;;;;;;;4.88;4.43;;;;;;;32.23;61.94;100732.44;5048114;28;65261;-38
2022/06/06 02:49:54;;;;;;;4.50;4.20;;;;;;;32.17;61.72;100722.50;5044284;28;69997;-38
2022/06/06 02:52:25;;;;;;;4.55;4.15;;;;;;;32.26;61.76;100721.09;5041960;28;65914;-37
2022/06/06 02:54:56;;;;;;;4.30;3.90;;;;;;;32.28;61.87;100724.41;5046468;28;68918;-38
2022/06/06 02:57:27;;;;;;;4.72;4.35;;;;;;;32.31;61.70;100718.50;5043563;28;65481;-38
2022/06/06 03:00:00;;;;;;;5.07;4.43;;;;;;;32.34;61.83;100720.75;5046123;28;70071;-38
2022/06/06 03:02:33;;;;;;;4.53;4.10;;;;;;;32.17;61.65;100684.53;5050787;28;66210;-38
2022/06/06 03:05:05;;;;;;;4.15;3.75;;;;;;;32.39;61.37;100715.47;5043219;28;70749;-37
2022/06/06 03:07:50;;;;;;;6.05;4.50;;;;;;;31.97;61.00;100647.69;5059613;28;66308;-38
2022/06/06 03:10:34;;;;;;;4.68;4.28;;;;;;;32.42;60.76;100709.56;5040910;28;70668;-38
2022/06/06 03:13:05;;;;;;;4.63;4.13;;;;;;;32.45;61.04;100709.09;5041008;28;66072;-39
2022/06/06 03:22:00;;;;;;;4.03;3.63;;;;;;;32.43;60.94;100662.38;5044281;28;69620;-39
2022/06/06 03:24:40;;;;;;;4.57;3.88;;;;;;;32.54;60.92;100677.03;5051066;28;65860;-38
2022/06/06 03:27:39;;;;;;;3.83;3.03;;;;;;;32.51;61.23;100680.19;5043723;28;69295;-38
2022/06/06 03:30:40;;;;;;;4.18;3.75;;;;;;;32.20;61.15;100635.19;5054359;28;65942;-38
2022/06/06 03:33:20;;;;;;;3.65;3.35;;;;;;;32.64;61.09;100684.56;5044895;28;70170;-39
2022/06/06 03:36:24;;;;;;;4.55;3.15;;;;;;;32.39;60.63;100644.88;5049677;28;66182;-38
2022/06/06 03:39:13;;;;;;;3.30;3.00;;;;;;;32.64;60.75;100676.44;5052958;28;68954;-38
2022/06/06 03:42:03;;;;;;;3.92;3.63;;;;;;;32.36;60.55;100618.22;5045175;28;66136;-38
2022/06/06 03:44:56;;;;;;;4.28;3.38;;;;;;;32.75;60.55;100681.03;5054836;28;68967;-37
2022/06/06 03:47:38;;;;;;;3.50;3.20;;;;;;;32.75;60.55;100670.16;5058185;28;65389;-38
2022/06/06 03:50:52;;;;;;;3.40;3.10;;;;;;;32.68;60.44;100664.84;5045804;28;70215;-38
2022/06/06 03:53:41;;;;;;;3.55;3.10;;;;;;;32.83;60.33;100655.38;5045715;28;65411;-38
2022/06/06 03:56:37;;;;;;;4.75;3.03;;;;;;;32.88;60.12;100648.16;5022987;28;70220;-38
2022/06/06 03:59:09;;;;;;;4.50;3.00;;;;;;;32.91;60.25;100642.25;5042114;28;66405;-38
2022/06/06 04:01:40;;;;;;;;;;;;;;;32.59;60.73;100649.16;5058460;28;69182;-38
2022/06/06 04:04:12;;;;;;;6.22;2.90;;;;;;;32.90;60.07;100646.06;5060909;28;66160;-38
2022/06/06 04:06:44;;;;;;;3.72;2.88;;;;;;;32.94;60.25;100647.22;5042127;28;70124;-38
2022/06/06 04:09:15;;;;;;;3.00;2.80;;;;;;;32.96;60.24;100644.25;5050581;28;65538;-38
2022/06/06 04:12:24;;;;;;;3.55;2.65;;;;;;;32.90;60.10;100639.75;5056215;28;69683;-38
2022/06/06 04:15:15;;;;;;;6.20;3.33;;;;;;;32.89;60.11;100630.78;5050671;28;65812;-38
2022/06/06 04:18:07;;;;;;;3.58;3.25;;;;;;;33.04;59.94;100630.34;5031738;28;69339;-38
2022/06/06 04:21:13;;;;;;;3.67;3.30;;;;;;;32.95;59.84;100634.44;5058514;28;66507;-37
2022/06/06 04:24:07;;;;;;;4.13;2.83;;;;;;;33.07;59.68;100627.13;5055246;28;70779;-38
2022/06/06 04:26:43;;;;;;;3.63;3.33;;;;;;;33.08;59.50;100631.47;5047501;28;65512;-37
2022/06/06 04:29:26;;;;;;;3.28;3.03;;;;;;;33.09;59.83;100629.59;5023210;28;69754;-39
2022/06/06 04:32:01;;;;;;;3.00;2.58;;;;;;;33.07;59.59;100616.25;5043616;28;66136;-39
2022/06/06 04:34:50;;;;;;;3.60;2.80;;;;;;;33.08;59.56;100614.38;5060220;28;69600;-38
2022/06/06 04:37:28;;;;;;;3.35;2.50;;;;;;;33.09;59.46;100599.69;5050825;28;65723;-38
2022/06/06 04:40:35;;;;;;;3.25;2.80;;;;;;;33.02;59.66;100609.91;5050661;28;69551;-37
2022/06/06 04:43:12;;;;;;;2.80;2.60;;;;;;;33.18;59.25;100609.09;5041907;28;66164;-38
2022/06/06 04:46:10;;;;;;;3.10;2.80;;;;;;;32.83;59.23;100539.41;5041162;28;70854;-38
2022/06/06 04:48:42;;;;;;;2.50;2.30;;;;;;;33.21;59.30;100592.34;5053678;28;66061;-38
2022/06/06 04:51:18;;;;;;;2.28;2.08;;;;;;;32.87;59.20;100526.97;5050652;28;70281;-38
2022/06/06 04:53:56;;;;;;;3.33;3.03;;;;;;;33.23;58.83;100581.19;5060595;28;66950;-37
2022/06/06 04:56:27;;;;;;;2.80;2.60;;;;;;;33.26;59.32;100576.09;5049012;28;70022;-37
2022/06/06 04:59:01;;;;;;;2.08;1.95;;;;;;;33.26;59.27;100570.66;5051373;28;66521;-38
2022/06/06 05:01:34;;;;;;;3.17;2.50;;;;;;;32.68;59.07;100468.47;5045423;28;70189;-38
2022/06/06 05:04:07;;;;;;;3.03;2.50;;;;;;;33.32;58.99;100569.72;5052582;28;43753;-38
2022/06/06 05:06:53;;;;;;;3.77;2.07;;;;;;;33.27;58.80;100561.47;5053921;28;69503;-39
2022/06/06 05:09:55;;;;;;;3.35;2.35;;;;;;;33.26;59.01;100567.94;5054245;28;66488;-38
2022/06/06 05:12:56;;;;;;;2.47;2.08;;;;;;;33.29;58.89;100561.19;5045956;28;70105;-38
2022/06/06 05:15:40;;;;;;;2.33;2.13;;;;;;;33.07;58.82;100525.72;5037556;28;65587;-38
2022/06/06 05:18:21;;;;;;;2.78;2.58;;;;;;;33.43;58.98;100559.00;5046406;28;69205;-38
2022/06/06 05:21:19;;;;;;;2.30;2.10;;;;;;;33.35;58.76;100555.63;5043545;28;64842;-38
2022/06/06 05:24:11;;;;;;;2.58;2.35;;;;;;;33.48;58.90;100553.66;5047434;28;69362;-38
2022/06/06 05:27:07;;;;;;;4.40;2.22;;;;;;;33.00;58.68;100493.28;5051428;28;65919;-39
2022/06/06 05:30:03;;;;;;;3.97;2.22;;;;;;;33.50;58.57;100548.78;5052748;28;70016;-37
2022/06/06 05:32:49;;;;;;;4.35;2.10;;;;;;;33.41;58.42;100536.69;5043551;28;65690;-37
2022/06/06 05:35:45;;;;;;;2.67;2.00;;;;;;;33.44;58.57;100542.44;5040153;28;69809;-37
2022/06/06 05:38:29;;;;;;;2.08;1.80;;;;;;;33.36;58.60;100513.75;5051273;28;65991;-37
2022/06/06 05:41:18;;;;;;;5.40;2.67;;;;;;;33.50;58.61;100540.63;5043753;28;69571;-37
2022/06/06 05:43:56;;;;;;;3.22;2.20;;;;;;;33.55;58.62;100532.59;5051395;28;65987;-38
2022/06/06 05:46:42;;;;;;;2.20;1.83;;;;;;;33.53;58.44;100532.00;5058531;28;69696;-38
2022/06/06 05:49:24;;;;;;;2.38;1.90;;;;;;;33.46;58.34;100512.28;5056831;27;66010;-38
2022/06/06 05:52:32;;;;;;;2.33;1.85;;;;;;;33.13;58.60;100459.56;5059354;28;69764;-38
2022/06/06 05:55:17;;;;;;;2.63;1.52;;;;;;;33.26;58.33;100464.66;5052609;27;65014;-38
2022/06/06 05:58:07;;;;;;;5.55;1.92;;;;;;;33.24;57.94;100455.09;5049465;28;69390;-39
2022/06/06 06:01:07;;;;;;;5.80;1.80;;;;;;;33.58;58.32;100510.34;5051551;28;66805;-38
2022/06/06 06:04:15;;;;;;;1.90;1.33;;;;;;;33.61;58.43;100498.16;5053004;28;70123;-38
2022/06/06 06:07:30;;;;;;;2.17;1.90;;;;;;;33.57;58.64;100498.66;5043659;28;65821;-38
2022/06/06 06:10:26;;;;;;;2.00;1.70;;;;;;;33.65;58.28;100489.22;5044139;28;70204;-38
2022/06/06 06:13:07;;;;;;;2.25;1.70;;;;;;;33.64;58.19;100468.56;5056836;28;66787;-38
2022/06/06 06:15:43;;;;;;;1.73;1.63;;;;;;;33.46;57.68;100436.13;5056848;28;70396;-37
2022/06/06 06:18:46;;;;;;;6.32;1.90;;;;;;;33.69;58.15;100470.53;5047554;28;65451;-38
2022/06/06 06:21:20;;;;;;;2.05;1.75;;;;;;;33.87;57.90;100474.84;5052660;28;70328;-37
2022/06/06 06:24:11;;;;;;;2.08;1.80;;;;;;;33.41;58.30;100411.63;5053050;28;65702;-38
2022/06/06 06:26:43;;;;;;;3.38;2.10;;;;;;;33.89;57.96;100459.94;5053961;28;69983;-38
2022/06/06 06:29:14;;;;;;;1.88;1.67;;;;;;;33.94;57.72;100460.00;5052094;28;66102;-39
2022/06/06 06:32:22;;;;;;;3.22;2.17;;;;;;;33.86;58.27;100465.88;5060139;28;69967;-38
2022/06/06 06:35:07;;;;;;;2.38;1.83;;;;;;;33.99;57.80;100456.50;5052866;28;66418;-38
2022/06/06 06:38:12;;;;;;;2.50;2.05;;;;;;;33.96;58.02;100451.56;5048514;28;70124;-38
2022/06/06 06:41:05;;;;;;;2.47;1.77;;;;;;;33.63;57.94;100398.91;5039799;28;66759;-38
2022/06/06 06:43:56;;;;;;;5.25;1.67;;;;;;;34.14;57.67;100459.47;5055218;28;70403;-38
2022/06/06 06:46:33;;;;;;;2.40;2.00;;;;;;;33.73;57.45;100382.72;5049456;28;66389;-38
2022/06/06 06:49:15;;;;;;;2.15;1.60;;;;;;;34.20;57.57;100453.00;5043067;28;70227;-38
2022/06/06 06:52:03;;;;;;;1.98;1.73;;;;;;;34.23;57.25;100452.50;5044384;28;65673;-38
2022/06/06 06:55:17;;;;;;;2.15;1.95;;;;;;;34.16;57.60;100448.34;5059173;28;69856;-38
2022/06/06 06:58:08;;;;;;;2.22;2.03;;;;;;;34.23;57.60;100452.50;5058405;28;66776;-38
2022/06/06 07:00:52;;;;;;;2.42;2.20;;;;;;;34.08;57.30;100416.94;5047582;28;70598;-38
2022/06/06 07:09:52;;;;;;;3.67;2.17;;;;;;;34.37;57.25;100424.91;5055288;28;66182;-38
2022/06/06 07:13:03;;;;;;;2.75;2.00;;;;;;;34.28;57.30;100421.00;5041324;28;70373;-37
2022/06/06 07:15:48;;;;;;;2.20;1.92;;;;;;;34.39;57.09;100415.41;5041962;28;65610;-37
2022/06/06 07:18:25;;;;;;;1.92;1.83;;;;;;;34.13;56.80;100348.97;5055767;28;69986;-38
2022/06/06 07:20:57;;;;;;;2.80;2.25;;;;;;;34.15;57.25;100349.50;5053665;28;66720;-38
2022/06/06 07:23:33;;;;;;;2.33;1.92;;;;;;;34.25;56.66;100354.25;5044082;28;70182;-38
2022/06/06 07:26:07;;;;;;;5.47;2.25;;;;;;;34.54;57.06;100382.06;5052470;28;66185;-38
2022/06/06 07:28:37;;;;;;;2.22;1.95;;;;;;;34.55;56.99;100385.59;5041410;28;69586;-38
2022/06/06 07:31:20;;;;;;;4.35;2.40;;;;;;;34.57;57.01;100386.19;5041495;28;66137;-38
2022/06/06 07:34:11;;;;;;;2.85;2.05;;;;;;;34.47;56.82;100371.38;5039909;28;69638;-38
2022/06/06 07:36:51;;;;;;;2.83;2.20;;;;;;;34.23;56.75;100316.41;5051233;28;65987;-38
2022/06/06 07:39:40;;;;;;;2.03;1.80;;;;;;;34.62;56.81;100373.44;5047482;28;70572;-38
2022/06/06 07:42:56;;;;;;;2.25;1.85;;;;;;;34.52;56.80;100383.38;5046004;28;66138;-40
2022/06/06 07:45:54;;;;;;;8.25;2.15;;;;;;;34.55;56.51;100369.25;5047125;28;69101;-39
2022/06/06 07:48:55;;;;;;;2.45;1.95;;;;;;;34.60;56.82;100370.19;5042843;28;65907;-39
2022/06/06 07:51:46;;;;;;;4.68;2.08;;;;;;;34.58;56.43;100375.06;5047212;28;69836;-37
2022/06/06 07:54:42;;;;;;;3.33;2.15;;;;;;;34.60;56.86;100369.34;5052826;28;65433;-38
2022/06/06 07:57:37;;;;;;;3.17;2.15;;;;;;;34.62;56.43;100365.28;5049928;28;69966;-39
2022/06/06 08:00:17;;;;;;;2.47;2.28;;;;;;;34.33;56.66;100303.97;5053421;28;66366;-38
2022/06/06 08:03:12;;;;;;;7.22;2.17;;;;;;;34.65;56.73;100351.13;5055787;28;70057;-38
2022/06/06 08:06:02;;;;;;;2.95;1.92;;;;;;;34.71;56.87;100343.81;5039584;28;66447;-38
2022/06/06 08:09:04;;;;;;;4.55;1.83;;;;;;;34.62;56.91;100345.38;5043800;28;69171;-38
2022/06/06 08:11:34;;;;;;;2.90;2.08;;;;;;;34.73;56.56;100335.41;5044330;28;65737;-38
2022/06/06 08:14:14;;;;;;;4.40;1.88;;;;;;;34.55;56.77;100303.88;5037834;28;69650;-39
2022/06/06 08:17:07;;;;;;;3.22;2.17;;;;;;;34.66;56.51;100339.19;5042023;28;65528;-39
2022/06/06 08:19:49;;;;;;;3.72;1.92;;;;;;;34.78;56.14;100316.38;5057806;28;70480;-40
2022/06/06 08:22:24;;;;;;;6.28;2.25;;;;;;;34.50;56.38;100274.72;5041414;28;66199;-38
2022/06/06 08:24:59;;;;;;;2.38;2.10;;;;;;;34.80;56.24;100319.66;5046907;28;70597;-38
2022/06/06 08:27:36;;;;;;;4.57;1.98;;;;;;;34.80;56.74;100322.38;5037969;28;66689;-38
2022/06/06 08:30:07;;;;;;;2.70;2.22;;;;;;;34.80;56.28;100319.66;5039236;28;69567;-38
2022/06/06 08:32:43;;;;;;;3.35;2.20;;;;;;;34.80;56.67;100308.75;5047454;28;66522;-38
2022/06/06 08:35:15;;;;;;;6.10;2.30;;;;;;;34.81;56.63;100296.78;5044794;28;70370;-39
2022/06/06 08:38:00;;;;;;;;;;;;;;;34.51;57.27;100298.13;5038810;28;65881;-38
2022/06/06 08:40:58;;;;;;;2.60;1.85;;;;;;;34.69;56.79;100307.88;5054417;28;69336;-38
2022/06/06 08:43:35;;;;;;;2.38;2.17;;;;;;;34.80;56.55;100303.28;5051905;28;66623;-38
2022/06/06 08:46:19;;;;;;;2.40;2.20;;;;;;;34.81;56.90;100296.78;5059005;28;70022;-39
2022/06/06 08:49:10;;;;;;;4.20;2.13;;;;;;;34.79;56.71;100302.47;5044340;28;65311;-39
2022/06/06 08:51:58;;;;;;;3.67;2.30;;;;;;;34.77;56.22;100293.78;5039240;28;71207;-38
2022/06/06 08:54:50;;;;;;;2.65;2.30;;;;;;;34.82;56.61;100301.16;5043291;28;66244;-37
2022/06/06 08:57:51;;;;;;;3.00;2.28;;;;;;;34.70;56.70;100293.97;5055117;28;70112;-39
2022/06/06 09:00:35;;;;;;;1.88;1.67;;;;;;;34.80;56.56;100292.41;5053707;28;65560;-37
2022/06/06 09:03:26;;;;;;;2.78;2.30;;;;;;;34.81;56.39;100299.50;5055716;28;69427;-39
2022/06/06 09:06:39;;;;;;;2.83;2.03;;;;;;;34.73;56.54;100308.16;5049950;28;66503;-38
2022/06/06 09:09:12;;;;;;;;;;;;;;;34.51;57.54;100305.50;5047499;28;69968;-38
2022/06/06 09:12:10;;;;;;;7.90;2.55;;;;;;;34.75;56.99;100304.09;5040992;28;66070;-37
2022/06/06 09:15:11;;;;;;;2.85;2.17;;;;;;;34.79;56.52;100318.00;5047196;28;70164;-38
2022/06/06 09:18:01;;;;;;;2.88;2.55;;;;;;;34.70;57.13;100310.31;5038927;28;66657;-38
2022/06/06 09:20:37;;;;;;;2.80;2.03;;;;;;;34.84;57.01;100309.88;5038061;28;69361;-38
2022/06/06 09:23:38;;;;;;;2.75;2.28;;;;;;;34.77;56.91;100315.56;5049479;28;66111;-38
2022/06/06 09:26:40;;;;;;;2.60;2.13;;;;;;;34.40;57.20;100255.56;5039504;27;70137;-39
2022/06/06 09:29:17;;;;;;;5.70;2.00;;;;;;;34.80;56.91;100315.03;5044608;28;65575;-39
2022/06/06 09:32:25;;;;;;;2.90;2.20;;;;;;;34.80;56.85;100330.53;5059434;28;69593;-38
2022/06/06 09:35:37;;;;;;;2.92;2.60;;;;;;;34.77;56.92;100326.47;5054086;28;66240;-38
2022/06/06 09:38:33;;;;;;;4.80;2.28;;;;;;;34.73;56.86;100319.88;5048396;28;70478;-38
2022/06/06 09:41:44;;;;;;;3.15;2.63;;;;;;;34.44;56.89;100283.94;5039262;28;66092;-38
2022/06/06 09:44:51;;;;;;;4.60;2.57;;;;;;;34.72;57.10;100329.16;5050680;28;70403;-38
2022/06/06 09:47:46;;;;;;;3.70;2.63;;;;;;;34.81;57.31;100326.75;5037758;28;65595;-37
2022/06/06 09:50:47;;;;;;;4.43;2.35;;;;;;;34.73;57.03;100328.06;5040922;28;70148;-38
2022/06/06 09:53:42;;;;;;;4.45;2.25;;;;;;;34.73;56.87;100329.97;5050855;28;66376;-38
2022/06/06 09:59:44;;;;;;;3.08;2.78;;;;;;;34.78;56.84;100335.47;5038997;28;66215;-41
2022/06/06 10:02:42;;;;;;;2.42;2.22;;;;;;;34.74;57.15;100334.31;5051473;28;70275;-39
2022/06/06 10:05:18;;;;;;;2.67;2.47;;;;;;;34.83;56.96;100333.59;5052845;28;66131;-39
2022/06/06 10:08:11;;;;;;;4.70;2.17;;;;;;;34.75;57.24;100334.06;5043009;28;69995;-39
2022/06/06 10:11:35;;;;;;;2.30;2.08;;;;;;;34.66;57.24;100330.19;5030441;28;65901;-39
2022/06/06 10:14:27;;;;;;;6.35;2.88;;;;;;;34.74;57.44;100334.31;5052213;28;70287;-39
2022/06/06 10:17:18;;;;;;;3.35;2.58;;;;;;;34.73;57.32;100336.22;5044275;28;66474;-39
2022/06/06 10:20:01;;;;;;;3.22;2.75;;;;;;;34.82;57.66;100340.09;5045248;27;70201;-39
2022/06/06 10:22:47;;;;;;;3.45;2.60;;;;;;;34.81;57.96;100343.09;5038580;28;65773;-39
2022/06/06 10:25:47;;;;;;;7.78;3.03;;;;;;;34.65;58.59;100334.78;5043872;28;70207;-39
2022/06/06 10:28:51;;;;;;;3.35;2.53;;;;;;;34.54;58.48;100304.97;5044244;28;65727;-39
2022/06/06 10:31:56;;;;;;;5.53;2.70;;;;;;;34.79;59.00;100348.00;5048755;28;70463;-38
2022/06/06 10:34:52;;;;;;;9.38;3.80;;;;;;;34.78;59.37;100344.44;5048965;28;66287;-38
2022/06/06 10:37:45;;;;;;;9.30;3.33;;;;;;;34.55;59.12;100315.63;5046912;28;69967;-38
2022/06/06 10:40:48;;;;;;;3.83;3.00;;;;;;;34.37;59.92;100308.63;5054982;28;66817;-38
2022/06/06 10:43:56;;;;;;;5.18;3.15;;;;;;;34.76;60.05;100353.97;5041008;28;69189;-39
2022/06/06 10:47:12;;;;;;;7.90;3.67;;;;;;;34.77;59.90;100352.88;5047112;28;66042;-39
2022/06/06 10:49:43;;;;;;;4.22;3.40;;;;;;;34.86;59.62;100356.78;5039965;28;69385;-39
2022/06/06 10:52:32;;;;;;;6.85;4.05;;;;;;;34.49;62.18;100368.38;5039925;28;66207;-38
2022/06/06 10:55:19;;;;;;;10.70;5.18;;;;;;;34.39;61.31;100373.75;5048702;28;70241;-38
2022/06/06 10:58:18;;;;;;;6.18;5.25;;;;;;;34.22;61.88;100380.09;5042431;28;66646;-38
2022/06/06 11:00:55;;;;;;;4.55;4.15;;;;;;;34.23;61.72;100387.16;5058611;27;70294;-37
2022/06/06 11:03:32;;;;;;;6.18;4.22;;;;;;;34.18;63.01;100400.72;5052491;28;65682;-37
2022/06/06 11:06:36;;;;;;;6.75;5.03;;;;;;;34.06;62.48;100402.75;5041792;28;69901;-38
2022/06/06 11:09:42;;;;;;;12.82;3.95;;;;;;;34.16;62.03;100400.19;5050306;28;65799;-39
2022/06/06 11:12:48;;;;;;;10.00;4.38;;;;;;;34.36;61.47;100401.47;5051838;28;70110;-39
2022/06/06 11:15:19;;;;;;;4.00;3.60;;;;;;;34.50;60.90;100389.09;5059418;28;66674;-38
2022/06/06 11:18:29;;;;;;;5.15;3.53;;;;;;;34.45;61.42;100389.03;5058657;28;70449;-38
2022/06/06 11:21:31;;;;;;;5.22;4.03;;;;;;;34.53;61.03;100395.94;5049530;28;66370;-39
2022/06/06 11:24:21;;;;;;;9.57;3.25;;;;;;;34.51;60.49;100377.13;5056418;28;68982;-40
2022/06/06 11:27:14;;;;;;;4.95;3.40;;;;;;;34.60;60.57;100400.16;5048202;28;65601;-40
2022/06/06 11:30:00;;;;;;;4.65;3.60;;;;;;;34.70;60.34;100397.50;5048124;28;70061;-36
2022/06/06 11:33:04;;;;;;;7.60;3.72;;;;;;;34.62;60.82;100394.41;5042029;28;65605;-38
2022/06/06 11:36:12;;;;;;;4.82;3.90;;;;;;;34.64;61.03;100401.25;5047842;28;70282;-39
2022/06/06 11:39:17;;;;;;;6.25;3.60;;;;;;;34.21;60.86;100342.22;5043542;28;66661;-39
2022/06/06 11:42:09;;;;;;;4.68;3.83;;;;;;;34.73;60.63;100420.69;5042839;28;69558;-39
2022/06/06 11:45:16;;;;;;;4.38;3.97;;;;;;;34.63;60.96;100443.22;5040983;28;65922;-39
2022/06/06 11:48:03;;;;;;;5.00;4.32;;;;;;;34.37;60.33;100392.22;5037381;28;69911;-39
2022/06/06 11:50:54;;;;;;;4.40;3.80;;;;;;;34.64;61.20;100458.47;5051482;28;65861;-38
2022/06/06 11:53:52;;;;;;;10.82;5.05;;;;;;;34.72;60.60;100465.34;5048919;28;70304;-39
2022/06/06 11:57:10;;;;;;;9.63;4.65;;;;;;;34.60;60.93;100468.25;5048973;28;65501;-38
2022/06/06 12:00:06;;;;;;;5.43;4.85;;;;;;;34.59;60.89;100477.47;5040475;28;70035;-38
2022/06/06 12:03:01;;;;;;;5.85;4.70;;;;;;;34.60;60.94;100484.59;5048259;28;65290;-39
2022/06/06 12:06:30;;;;;;;10.32;5.53;;;;;;;34.60;60.84;100473.69;5038864;28;69518;-39
2022/06/06 12:09:36;;;;;;;5.05;4.65;;;;;;;34.59;60.85;100472.03;5041131;28;66479;-39
2022/06/06 12:12:45;;;;;;;8.13;5.07;;;;;;;34.59;60.60;100465.75;5027363;28;69887;-38
2022/06/06 12:15:47;;;;;;;6.53;4.95;;;;;;;34.55;60.75;100468.16;5038899;28;65978;-39
2022/06/06 12:18:51;;;;;;;8.05;5.22;;;;;;;34.53;60.18;100459.41;5045208;28;69970;-39
2022/06/06 12:21:46;;;;;;;6.13;5.00;;;;;;;34.56;60.10;100456.19;5042737;28;65587;-39
2022/06/06 12:24:43;;;;;;;10.18;5.85;;;;;;;34.57;60.28;100462.47;5045512;28;70113;-38
2022/06/06 12:27:17;;;;;;;15.27;5.80;;;;;;;34.41;60.46;100467.72;5041879;28;66107;-38
2022/06/06 12:30:00;;;;;;;6.13;5.53;;;;;;;34.04;60.63;100418.47;5049550;28;70182;-39
2022/06/06 12:32:33;;;;;;;7.90;5.97;;;;;;;34.47;60.79;100474.03;5042073;28;66221;-39
2022/06/06 12:35:11;;;;;;;5.75;5.18;;;;;;;34.50;60.33;100489.88;5049917;28;69257;-39
2022/06/06 12:38:01;;;;;;;8.13;6.18;;;;;;;34.16;60.24;100446.44;5050151;28;65539;-40
2022/06/06 12:41:11;;;;;;;11.48;6.43;;;;;;;34.40;60.36;100506.91;5053049;28;69193;-39
2022/06/06 12:43:48;;;;;;;6.80;6.00;;;;;;;34.51;60.29;100534.25;5045336;28;64855;-39
2022/06/06 12:46:49;;;;;;;6.82;6.10;;;;;;;34.39;60.12;100537.94;5047078;28;69851;-39
2022/06/06 12:49:59;;;;;;;9.90;7.15;;;;;;;34.29;60.14;100553.31;5045620;28;66161;-38
2022/06/06 12:52:50;;;;;;;9.02;7.25;;;;;;;34.41;59.95;100551.31;5040250;28;70437;-39
2022/06/06 12:55:31;;;;;;;;;;;;;;;34.11;60.39;100557.97;5056641;28;66336;-39
2022/06/06 12:58:18;;;;;;;9.50;7.75;;;;;;;34.33;59.99;100549.03;5046776;28;69718;-39
2022/06/06 13:04:35;;;;;;;11.73;7.22;;;;;;;34.34;59.76;100572.44;5047555;28;69642;-39
2022/06/06 13:07:27;;;;;;;7.07;6.35;;;;;;;34.43;59.70;100579.91;5045286;28;66225;-39
2022/06/06 13:10:33;;;;;;;7.18;6.53;;;;;;;33.94;59.91;100538.09;5040413;28;70168;-38
2022/06/06 13:13:22;;;;;;;7.10;6.40;;;;;;;34.41;59.68;100594.88;5054105;28;65863;-39
2022/06/06 13:16:25;;;;;;;7.03;6.32;;;;;;;34.39;59.87;100594.31;5041468;28;70313;-39
2022/06/06 13:19:21;;;;;;;8.18;5.97;;;;;;;34.07;59.42;100554.09;5053901;28;66563;-39
2022/06/06 13:22:13;;;;;;;8.70;6.63;;;;;;;33.65;59.85;100551.78;5044633;28;70487;-39